Medina, Saudi Arabia
Current Conditions -  °F | °C
As of 2:00 PM on Thursday 23 Oct 2014 (Local Time) from OEMA Reporting Station
Clear Clear  
Wind Chill: 99°   Ceiling: Unl
Heat Index: 99°   Visibility: 6mi
Dew Point: 34°   Wind: 9mph
Humidity: 10%   Direction: 260°W
Pressure: 30"   Gusts: NA
Location:  24.46°N, 39.62°E
Report Text: OEMA 231100Z 26008KT CAVOK 37/01 Q1016 NOSIG
Loading
Personal Weather Stations






























Interactive Weather Map
Tropical Storm Tracking
New forecast layout! Learn more

10-Day Weather Forecast

Advertisements
Track Severe Weather on mobile